createdAt,value
2018-09-28T00:02:48.819Z,102457.38
2018-09-28T00:05:52.326Z,102457.16
2018-09-28T00:08:55.864Z,102450.57
2018-09-28T00:11:59.330Z,102450.04
2018-09-28T00:15:02.809Z,102449.21
2018-09-28T00:18:06.489Z,102443.53
2018-09-28T00:21:10.061Z,102450.56
2018-09-28T00:24:13.542Z,102445.69
2018-09-28T00:27:17.018Z,102441.14
2018-09-28T00:30:20.513Z,102445.14
2018-09-28T00:33:24.098Z,102439.80
2018-09-28T00:36:27.622Z,102431.07
2018-09-28T00:39:31.471Z,102426.82
2018-09-28T00:42:34.970Z,102424.74
2018-09-28T00:45:38.310Z,102423.42
2018-09-28T00:48:41.774Z,102423.90
2018-09-28T00:51:45.332Z,102414.81
2018-09-28T00:54:48.902Z,102413.94
2018-09-28T00:57:52.349Z,102415.08
2018-09-28T01:00:55.982Z,102414.43
2018-09-28T01:03:59.627Z,102416.51
2018-09-28T01:07:03.056Z,102414.20
2018-09-28T01:10:06.650Z,102410.28
2018-09-28T01:13:10.081Z,102411.05
2018-09-28T01:16:13.587Z,102413.17
2018-09-28T01:19:17.074Z,102415.38
2018-09-28T01:22:20.646Z,102417.40
2018-09-28T01:25:24.107Z,102410.66
2018-09-28T01:28:27.580Z,102408.97
2018-09-28T01:31:31.431Z,102404.67
2018-09-28T01:34:34.877Z,102400.27
2018-09-28T01:37:38.361Z,102390.96
2018-09-28T01:40:41.897Z,102391.15
2018-09-28T01:43:45.558Z,102390.94
2018-09-28T01:46:49.068Z,102391.83
2018-09-28T01:49:52.664Z,102393.36
2018-09-28T01:52:56.166Z,102391.65
2018-09-28T01:55:59.628Z,102389.36
2018-09-28T01:59:03.152Z,102382.15
2018-09-28T02:02:06.681Z,102375.43
2018-09-28T02:05:10.140Z,102377.51
2018-09-28T02:08:13.671Z,102379.90
2018-09-28T02:11:17.174Z,102375.15
2018-09-28T02:14:20.694Z,102369.59
2018-09-28T02:17:24.143Z,102366.74
2018-09-28T02:20:27.623Z,102367.05
2018-09-28T02:23:31.032Z,102366.83
2018-09-28T02:26:34.457Z,102375.16
2018-09-28T02:29:37.947Z,102367.80
2018-09-28T02:32:41.448Z,102372.26
2018-09-28T02:35:44.837Z,102364.39
2018-09-28T02:38:48.305Z,102361.23
2018-09-28T02:41:51.741Z,102366.97
2018-09-28T02:44:55.341Z,102367.94
2018-09-28T02:47:58.799Z,102363.44
2018-09-28T02:51:02.330Z,102369.54
2018-09-28T02:54:05.817Z,102363.54
2018-09-28T02:57:09.371Z,102366.03
2018-09-28T03:00:12.869Z,102367.75
2018-09-28T03:03:16.583Z,102370.68
2018-09-28T03:06:20.130Z,102362.88
2018-09-28T03:09:23.637Z,102359.94
2018-09-28T03:12:27.134Z,102358.41
2018-09-28T03:15:30.561Z,102358.87
2018-09-28T03:18:33.972Z,102357.22
2018-09-28T03:21:37.399Z,102359.83
2018-09-28T03:24:40.896Z,102359.88
2018-09-28T03:27:44.390Z,102362.49
2018-09-28T03:30:47.787Z,102366.42
2018-09-28T03:33:51.179Z,102366.28
2018-09-28T03:36:54.670Z,102366.21
2018-09-28T03:39:58.115Z,102363.33
2018-09-28T03:43:01.697Z,102369.08
2018-09-28T03:46:05.103Z,102367.34
2018-09-28T03:49:08.479Z,102368.47
2018-09-28T03:52:11.899Z,102371.54
2018-09-28T03:55:15.291Z,102364.51
2018-09-28T03:58:18.800Z,102364.47
2018-09-28T04:01:22.174Z,102363.87
2018-09-28T04:04:25.574Z,102363.46
2018-09-28T04:07:28.985Z,102362.59
2018-09-28T04:10:32.394Z,102361.90
2018-09-28T04:13:35.773Z,102362.25
2018-09-28T04:16:39.188Z,102368.44
2018-09-28T04:19:42.599Z,102371.94
2018-09-28T04:22:46.012Z,102366.69
2018-09-28T04:25:49.430Z,102370.91
2018-09-28T04:28:53.219Z,102372.79
2018-09-28T04:31:56.618Z,102367.42
2018-09-28T04:35:00.008Z,102373.96
2018-09-28T04:38:03.576Z,102378.14
2018-09-28T04:41:07.040Z,102375.74
2018-09-28T04:44:10.820Z,102378.05
2018-09-28T04:47:14.218Z,102384.92
2018-09-28T04:50:17.711Z,102380.88
2018-09-28T04:53:21.972Z,102381.32
2018-09-28T04:56:25.585Z,102381.91
2018-09-28T04:59:29.253Z,102383.41
2018-09-28T05:02:32.853Z,102386.15
2018-09-28T05:05:36.396Z,102384.98
2018-09-28T05:08:39.959Z,102384.65
2018-09-28T05:11:43.505Z,102395.45
2018-09-28T05:14:47.276Z,102398.17
2018-09-28T05:17:50.829Z,102395.07
2018-09-28T05:20:55.354Z,102402.63
2018-09-28T05:23:58.791Z,102396.10
2018-09-28T05:27:02.513Z,102402.49
2018-09-28T05:30:06.103Z,102400.92
2018-09-28T05:33:09.842Z,102407.16
2018-09-28T05:36:13.474Z,102408.07
2018-09-28T05:39:17.030Z,102412.75
2018-09-28T05:42:20.548Z,102409.11
2018-09-28T05:45:24.051Z,102416.11
2018-09-28T05:48:27.546Z,102428.57
2018-09-28T05:51:31.213Z,102433.32
2018-09-28T05:54:34.636Z,102435.41
2018-09-28T05:57:38.160Z,102435.27
2018-09-28T06:00:46.952Z,102440.62
2018-09-28T06:03:56.912Z,102429.90
2018-09-28T06:07:00.497Z,102434.68
2018-09-28T06:10:04.097Z,102434.68
2018-09-28T06:13:07.951Z,102439.95
2018-09-28T06:16:11.557Z,102436.98
2018-09-28T06:19:15.258Z,102444.84
2018-09-28T06:22:19.897Z,102448.22
2018-09-28T06:25:23.456Z,102448.96
2018-09-28T06:28:27.049Z,102448.14
2018-09-28T06:31:30.481Z,102456.47
2018-09-28T06:34:34.036Z,102460.33
2018-09-28T06:37:37.518Z,102460.78
2018-09-28T06:40:41.005Z,102462.12
2018-09-28T06:43:44.610Z,102468.22
2018-09-28T06:46:48.109Z,102471.53
2018-09-28T06:49:51.662Z,102477.76
2018-09-28T06:52:55.119Z,102475.77
2018-09-28T06:55:58.638Z,102473.95
2018-09-28T06:59:02.209Z,102479.43
2018-09-28T07:02:05.766Z,102475.92
2018-09-28T07:05:09.292Z,102476.73
2018-09-28T07:08:12.906Z,102475.93
2018-09-28T07:11:16.656Z,102477.24
2018-09-28T07:14:20.169Z,102482.14
2018-09-28T07:17:23.619Z,102483.68
2018-09-28T07:20:27.177Z,102475.82
2018-09-28T07:23:30.660Z,102480.96
2018-09-28T07:26:34.210Z,102479.81
2018-09-28T07:29:37.634Z,102476.40
2018-09-28T07:32:41.051Z,102479.01
2018-09-28T07:35:44.626Z,102485.56
2018-09-28T07:38:48.223Z,102482.96
2018-09-28T07:41:51.757Z,102484.95
2018-09-28T07:44:55.242Z,102479.79
2018-09-28T07:47:58.701Z,102482.56
2018-09-28T07:51:02.197Z,102484.85
2018-09-28T07:54:05.684Z,102486.62
2018-09-28T07:57:09.210Z,102484.00
2018-09-28T08:00:12.700Z,102485.79
2018-09-28T08:03:16.173Z,102489.81
2018-09-28T08:06:19.621Z,102481.14
2018-09-28T08:09:23.190Z,102486.44
2018-09-28T08:12:26.724Z,102481.99
2018-09-28T08:15:30.172Z,102486.25
2018-09-28T08:18:33.735Z,102487.15
2018-09-28T08:21:37.441Z,102477.20
2018-09-28T08:24:41.216Z,102490.46
2018-09-28T08:27:44.652Z,102480.56
2018-09-28T08:30:48.187Z,102485.21
2018-09-28T08:33:51.824Z,102480.16
2018-09-28T08:36:55.420Z,102484.35
2018-09-28T08:39:58.856Z,102487.20
2018-09-28T08:43:02.366Z,102489.20
2018-09-28T08:46:05.905Z,102484.54
2018-09-28T08:49:09.513Z,102480.76
2018-09-28T08:52:14.034Z,102481.65
2018-09-28T08:55:18.908Z,102483.94
2018-09-28T08:58:22.407Z,102482.34
2018-09-28T09:01:26.035Z,102482.78
2018-09-28T09:04:29.902Z,102475.62
2018-09-28T09:07:34.588Z,102483.56
2018-09-28T09:10:38.056Z,102485.88
2018-09-28T09:13:41.643Z,102484.05
2018-09-28T09:16:45.062Z,102482.86
2018-09-28T09:19:48.588Z,102485.39
2018-09-28T09:22:52.058Z,102480.12
2018-09-28T09:25:55.440Z,102482.22
2018-09-28T09:28:58.837Z,102475.61
2018-09-28T09:32:02.395Z,102469.51
2018-09-28T09:35:05.998Z,102467.68
2018-09-28T09:38:09.328Z,102466.90
2018-09-28T09:41:14.659Z,102460.46
2018-09-28T09:44:18.082Z,102460.06
2018-09-28T09:47:21.667Z,102462.32
2018-09-28T09:50:25.093Z,102466.01
2018-09-28T09:53:28.587Z,102460.85
2018-09-28T09:56:32.008Z,102457.02
2018-09-28T09:59:35.385Z,102453.45
2018-09-28T10:02:44.315Z,102461.77
2018-09-28T10:05:48.063Z,102454.60
2018-09-28T10:08:52.051Z,102455.39
2018-09-28T10:11:55.435Z,102449.99
2018-09-28T10:14:58.855Z,102448.58
2018-09-28T10:18:02.237Z,102448.72
2018-09-28T10:21:06.055Z,102443.46
2018-09-28T10:24:09.469Z,102442.84
2018-09-28T10:27:12.888Z,102436.12
2018-09-28T10:30:16.254Z,102430.38
2018-09-28T10:33:19.858Z,102429.81
2018-09-28T10:36:24.317Z,102428.54
2018-09-28T10:39:27.728Z,102427.50
2018-09-28T10:42:31.083Z,102427.76
2018-09-28T10:45:34.598Z,102416.03
2018-09-28T10:48:38.078Z,102415.62
2018-09-28T10:51:41.644Z,102408.82
2018-09-28T10:54:45.252Z,102404.86
2018-09-28T10:57:49.104Z,102402.94
2018-09-28T11:00:52.584Z,102397.11
2018-09-28T11:03:56.023Z,102394.07
2018-09-28T11:07:00.063Z,102391.11
2018-09-28T11:10:03.623Z,102389.64
2018-09-28T11:13:08.171Z,102392.50
2018-09-28T11:16:12.322Z,102392.55
2018-09-28T11:19:15.882Z,102388.94
2018-09-28T11:22:19.652Z,102384.36
2018-09-28T11:25:24.264Z,102381.32
2018-09-28T11:28:28.016Z,102374.47
2018-09-28T11:31:31.510Z,102372.11
2018-09-28T11:34:35.047Z,102369.63
2018-09-28T11:37:38.752Z,102368.95
2018-09-28T11:40:42.201Z,102366.33
2018-09-28T11:43:45.785Z,102358.34
2018-09-28T11:46:50.093Z,102359.12
2018-09-28T11:49:53.595Z,102354.18
2018-09-28T11:52:57.142Z,102356.14
2018-09-28T11:56:00.637Z,102351.22
2018-09-28T11:59:04.252Z,102348.65
2018-09-28T12:02:08.581Z,102342.95
2018-09-28T12:05:12.229Z,102329.08
2018-09-28T12:08:15.798Z,102327.24
2018-09-28T12:11:19.396Z,102325.67
2018-09-28T12:14:22.931Z,102324.41
2018-09-28T12:17:26.441Z,102324.46
2018-09-28T12:20:29.871Z,102323.97
2018-09-28T12:23:33.309Z,102323.37
2018-09-28T12:26:36.745Z,102319.77
2018-09-28T12:29:40.478Z,102320.53
2018-09-28T12:32:43.956Z,102320.34
2018-09-28T12:35:47.324Z,102316.90
2018-09-28T12:38:50.753Z,102323.71
2018-09-28T12:41:54.159Z,102316.34
2018-09-28T12:44:57.667Z,102314.12
2018-09-28T12:48:01.114Z,102308.54
2018-09-28T12:51:04.555Z,102304.54
2018-09-28T12:54:07.981Z,102296.43
2018-09-28T12:57:11.472Z,102291.66
2018-09-28T13:00:14.914Z,102293.92
2018-09-28T13:03:18.375Z,102285.13
2018-09-28T13:06:21.861Z,102282.03
2018-09-28T13:09:25.272Z,102285.85
2018-09-28T13:12:28.696Z,102281.69
2018-09-28T13:15:32.175Z,102280.32
2018-09-28T13:18:35.721Z,102279.79
2018-09-28T13:21:39.228Z,102279.05
2018-09-28T13:24:42.819Z,102279.87
2018-09-28T13:27:46.258Z,102272.65
2018-09-28T13:30:49.880Z,102278.74
2018-09-28T13:33:53.267Z,102272.85
2018-09-28T13:36:56.706Z,102276.48
2018-09-28T13:40:00.144Z,102276.44
2018-09-28T13:43:03.615Z,102270.71
2018-09-28T13:46:07.450Z,102274.86
2018-09-28T13:49:10.919Z,102271.87
2018-09-28T13:52:14.453Z,102280.39
2018-09-28T13:55:17.800Z,102276.03
2018-09-28T13:58:21.206Z,102276.36
2018-09-28T14:01:24.626Z,102282.24
2018-09-28T14:04:28.235Z,102285.85
2018-09-28T14:07:31.513Z,102282.63
2018-09-28T14:10:34.919Z,102281.79
2018-09-28T14:13:38.368Z,102274.13
2018-09-28T14:16:41.827Z,102274.50
2018-09-28T14:19:45.191Z,102268.41
2018-09-28T14:22:48.636Z,102268.67
2018-09-28T14:25:52.042Z,102264.36
2018-09-28T14:28:55.461Z,102261.71
2018-09-28T14:31:58.790Z,102261.22
2018-09-28T14:35:02.386Z,102257.77
2018-09-28T14:38:06.922Z,102264.62
2018-09-28T14:41:10.376Z,102271.46
2018-09-28T14:44:13.772Z,102272.81
2018-09-28T14:47:17.192Z,102281.78
2018-09-28T14:50:20.758Z,102284.22
2018-09-28T14:53:24.241Z,102275.11
2018-09-28T14:56:27.759Z,102272.24
2018-09-28T14:59:31.130Z,102277.61
2018-09-28T15:02:34.652Z,102277.91
2018-09-28T15:05:38.141Z,102285.61
2018-09-28T15:08:41.695Z,102282.18
2018-09-28T15:11:45.307Z,102286.28
2018-09-28T15:14:49.123Z,102286.26
2018-09-28T15:17:52.900Z,102291.62
2018-09-28T15:20:56.631Z,102292.46
2018-09-28T15:24:00.375Z,102296.87
2018-09-28T15:27:03.963Z,102304.53
2018-09-28T15:30:08.481Z,102312.53
2018-09-28T15:36:49.855Z,102322.76
2018-09-28T15:39:53.517Z,102319.73
2018-09-28T15:42:57.115Z,102329.22
2018-09-28T15:46:00.727Z,102328.97
2018-09-28T15:49:04.149Z,102335.84
2018-09-28T15:52:07.641Z,102336.97
2018-09-28T15:55:11.156Z,102349.96
2018-09-28T15:58:14.827Z,102351.66
2018-09-28T16:01:18.337Z,102355.20
2018-09-28T16:04:21.851Z,102370.75
2018-09-28T16:07:25.361Z,102370.40
2018-09-28T16:10:28.735Z,102371.11
2018-09-28T16:13:32.152Z,102376.10
2018-09-28T16:16:35.563Z,102386.67
2018-09-28T16:19:39.018Z,102395.43
2018-09-28T16:22:42.448Z,102404.30
2018-09-28T16:25:45.832Z,102407.46
2018-09-28T16:28:49.321Z,102421.96
2018-09-28T16:35:31.136Z,102437.52
2018-09-28T16:38:34.709Z,102440.67
2018-09-28T16:41:38.184Z,102440.58
2018-09-28T16:44:41.798Z,102466.57
2018-09-28T16:47:45.253Z,102478.74
2018-09-28T16:50:48.675Z,102489.17
2018-09-28T16:53:52.181Z,102490.63
2018-09-28T16:56:55.866Z,102501.85
2018-09-28T16:59:59.283Z,102502.25
2018-09-28T17:03:02.711Z,102511.91
2018-09-28T17:06:06.151Z,102521.57
2018-09-28T17:09:10.445Z,102531.56
2018-09-28T17:12:13.989Z,102533.10
2018-09-28T17:15:17.445Z,102537.55
2018-09-28T17:18:20.893Z,102550.51
2018-09-28T17:21:24.566Z,102551.31
2018-09-28T17:24:27.969Z,102548.92
2018-09-28T17:27:31.384Z,102558.87
2018-09-28T17:30:34.870Z,102553.11
2018-09-28T17:33:38.290Z,102568.50
2018-09-28T17:36:41.675Z,102576.86
2018-09-28T17:39:45.058Z,102586.51
2018-09-28T17:42:48.708Z,102590.47
2018-09-28T17:45:52.280Z,102599.84
2018-09-28T17:48:55.885Z,102607.58
2018-09-28T17:51:59.388Z,102611.58
2018-09-28T17:55:02.889Z,102618.82
2018-09-28T17:58:06.545Z,102623.60
2018-09-28T18:01:10.022Z,102626.95
2018-09-28T18:04:13.533Z,102641.45
2018-09-28T18:07:17.105Z,102648.38
2018-09-28T18:10:20.608Z,102650.32
2018-09-28T18:13:24.189Z,102651.46
2018-09-28T18:16:27.713Z,102666.32
2018-09-28T18:19:31.203Z,102679.98
2018-09-28T18:22:35.758Z,102688.21
2018-09-28T18:25:39.138Z,102690.19
2018-09-28T18:28:42.724Z,102693.59
2018-09-28T18:31:46.247Z,102702.80
2018-09-28T18:34:49.734Z,102701.40
2018-09-28T18:37:53.245Z,102713.92
2018-09-28T18:40:56.764Z,102721.37
2018-09-28T18:44:00.279Z,102723.13
2018-09-28T18:47:03.765Z,102724.84
2018-09-28T18:50:07.275Z,102730.63
2018-09-28T18:53:10.762Z,102733.86
2018-09-28T18:56:14.391Z,102742.27
2018-09-28T18:59:17.954Z,102746.51
2018-09-28T19:02:21.365Z,102756.09
2018-09-28T19:05:24.863Z,102762.70
2018-09-28T19:08:28.389Z,102766.98
2018-09-28T19:11:31.877Z,102755.38
2018-09-28T19:14:35.378Z,102755.29
2018-09-28T19:17:39.001Z,102761.39
2018-09-28T19:20:42.591Z,102765.26
2018-09-28T19:23:46.096Z,102773.84
2018-09-28T19:26:49.620Z,102778.72
2018-09-28T19:29:53.120Z,102792.38
2018-09-28T19:32:57.011Z,102788.90
2018-09-28T19:36:00.563Z,102792.66
2018-09-28T19:39:04.759Z,102800.31
2018-09-28T19:42:08.368Z,102802.40
2018-09-28T19:45:11.845Z,102802.43
2018-09-28T19:48:15.494Z,102814.09
2018-09-28T19:51:18.986Z,102820.71
2018-09-28T19:54:22.433Z,102834.12
2018-09-28T19:57:26.040Z,102831.92
2018-09-28T20:00:29.811Z,102825.99
2018-09-28T20:03:33.356Z,102817.63
2018-09-28T20:06:37.207Z,102826.74
2018-09-28T20:09:40.675Z,102829.07
2018-09-28T20:12:44.450Z,102835.84
2018-09-28T20:15:48.248Z,102835.84
2018-09-28T20:18:51.789Z,102842.80
2018-09-28T20:21:55.260Z,102846.69
2018-09-28T20:24:58.746Z,102844.18
2018-09-28T20:28:02.325Z,102853.69
2018-09-28T20:31:06.075Z,102855.57
2018-09-28T20:34:09.587Z,102857.75
2018-09-28T20:37:13.164Z,102853.81
2018-09-28T20:40:16.673Z,102858.81
2018-09-28T20:43:20.200Z,102861.35
2018-09-28T20:46:23.791Z,102863.14
2018-09-28T20:49:27.296Z,102858.53
2018-09-28T20:52:30.866Z,102868.84
2018-09-28T20:55:34.448Z,102877.77
2018-09-28T20:58:37.952Z,102877.24
2018-09-28T21:01:41.920Z,102882.43
2018-09-28T21:04:45.425Z,102883.27
2018-09-28T21:07:49.970Z,102885.01
2018-09-28T21:10:53.382Z,102889.19
2018-09-28T21:13:56.787Z,102888.88
2018-09-28T21:17:00.232Z,102885.45
2018-09-28T21:20:04.851Z,102888.10
2018-09-28T21:23:08.369Z,102886.47
2018-09-28T21:26:11.907Z,102884.01
2018-09-28T21:29:15.305Z,102878.26
2018-09-28T21:32:19.918Z,102872.95
2018-09-28T21:35:23.497Z,102882.11
2018-09-28T21:38:27.153Z,102880.56
2018-09-28T21:41:30.557Z,102884.80
2018-09-28T21:44:33.944Z,102888.96
2018-09-28T21:47:37.349Z,102885.67
2018-09-28T21:50:40.779Z,102881.67
2018-09-28T21:53:44.128Z,102878.38
2018-09-28T21:56:47.540Z,102882.62
2018-09-28T21:59:50.973Z,102882.02
2018-09-28T22:02:54.337Z,102888.36
2018-09-28T22:05:57.746Z,102887.40
2018-09-28T22:09:01.214Z,102888.59
2018-09-28T22:12:05.561Z,102889.95
2018-09-28T22:15:09.102Z,102890.56
2018-09-28T22:18:12.463Z,102889.25
2018-09-28T22:21:15.950Z,102893.87
2018-09-28T22:24:19.368Z,102894.98
2018-09-28T22:27:22.769Z,102894.49
2018-09-28T22:30:26.174Z,102894.37
2018-09-28T22:33:29.571Z,102901.19
2018-09-28T22:36:32.961Z,102909.19
2018-09-28T22:39:36.481Z,102907.48
2018-09-28T22:42:39.867Z,102911.08
2018-09-28T22:45:43.272Z,102912.60
2018-09-28T22:48:46.682Z,102918.08
2018-09-28T22:51:50.127Z,102923.20
2018-09-28T22:54:53.467Z,102934.05
2018-09-28T22:57:56.866Z,102930.52
2018-09-28T23:01:00.268Z,102943.67
2018-09-28T23:04:03.669Z,102943.65
2018-09-28T23:07:08.530Z,102944.70
2018-09-28T23:10:11.961Z,102938.49
2018-09-28T23:13:15.329Z,102948.54
2018-09-28T23:16:18.759Z,102954.07
2018-09-28T23:19:22.097Z,102954.07
2018-09-28T23:22:25.516Z,102959.75
2018-09-28T23:25:29.000Z,102957.29
2018-09-28T23:28:32.588Z,102958.73
2018-09-28T23:31:36.147Z,102959.31
2018-09-28T23:34:39.633Z,102972.65
2018-09-28T23:37:43.143Z,102974.60
2018-09-28T23:40:46.634Z,102971.77
2018-09-28T23:43:50.116Z,102978.81
2018-09-28T23:46:53.617Z,102983.94
2018-09-28T23:49:57.145Z,102984.71
2018-09-28T23:53:00.669Z,102975.91
2018-09-28T23:56:04.195Z,102980.61
2018-09-28T23:59:07.799Z,102975.15
